Sally — WDC3701 — position and weather

sailwx.info

Track history (hours):
 
Tides and Currents Weather Stations Pressure Air Temp Water Temp Dewpoint Dewpoint Depression Visibility Wind Speed Wind Dir Waves Ship Positions

Sally

Owner: Wilmington Tug, Inc., New Castle, DE. More information available from US FCC via Universal Licensing System and Coast Guard Vessel Documentation Center.

Last reported at 2018-Feb-21 11:31 UTC. Time now 2018-Feb-21 11:38 UTC.
Position N 39°43' W 075°31'.

Length 24 m; draft 4 m.

Type: Tug. MMSI: 367012660.

Date/timePositionNaut miles runAvg speedWind from/ knotsBaromVisibWave heightAir tempDewpointWater temp
2018-Feb-21 11:31N 39°43' W 075°31'0 0.0
2018-Feb-21 11:00N 39°43' W 075°31'0 0.0
2018-Feb-21 10:31N 39°43' W 075°31'0 0.0
2018-Feb-21 10:00N 39°43' W 075°31'0 0.0
2018-Feb-21 09:31N 39°43' W 075°31'0 0.0
2018-Feb-21 09:01N 39°43' W 075°31'0 0.0
2018-Feb-21 08:31N 39°43' W 075°31'0 0.0
2018-Feb-21 08:01N 39°43' W 075°31'0 0.0
2018-Feb-21 07:30N 39°43' W 075°31'0 0.0
2018-Feb-21 07:00N 39°43' W 075°31'0 0.0
2018-Feb-21 06:30N 39°43' W 075°31'1 2.5
2018-Feb-21 06:00N 39°44' W 075°30'4 8.9
2018-Feb-21 05:30N 39°48' W 075°27'1 1.5
2018-Feb-21 05:00N 39°48' W 075°26'0 0.0
2018-Feb-21 04:30N 39°48' W 075°26'4 7.3
2018-Feb-21 04:00N 39°45' W 075°29'3 5.6
2018-Feb-21 03:30N 39°43' W 075°31'0 0.0
2018-Feb-21 03:00N 39°43' W 075°31'0 0.0
2018-Feb-21 02:30N 39°43' W 075°31'0 0.0
2018-Feb-21 02:00N 39°43' W 075°31'0 0.0
2018-Feb-21 01:30N 39°43' W 075°31'0 0.0
2018-Feb-21 01:00N 39°43' W 075°31'0 0.0
2018-Feb-21 00:31N 39°43' W 075°31'3 5.6
2018-Feb-21 00:00N 39°40' W 075°32'5 9.3
2018-Feb-20 23:30N 39°37' W 075°36'2 3.8
2018-Feb-20 23:00N 39°35' W 075°35'0 0.1
2018-Feb-20 22:31N 39°35' W 075°36'0 0.1
2018-Feb-20 22:00N 39°35' W 075°36'4 8.2
2018-Feb-20 21:31N 39°39' W 075°34'5 9.2
2018-Feb-20 21:00N 39°43' W 075°31'0 0.0
2018-Feb-20 20:31N 39°43' W 075°31'0 0.0
2018-Feb-20 20:01N 39°43' W 075°31'0 0.0
2018-Feb-20 19:30N 39°43' W 075°31'0 0.0
2018-Feb-20 19:00N 39°43' W 075°31'0 0.0
2018-Feb-20 18:31N 39°43' W 075°31'0 0.0
2018-Feb-20 18:01N 39°43' W 075°31'0 0.0
2018-Feb-20 17:31N 39°43' W 075°31'0 0.1
2018-Feb-20 17:00N 39°43' W 075°31'2 4.8
2018-Feb-20 16:31N 39°41' W 075°32'510.7
2018-Feb-20 16:01N 39°36' W 075°34'3 6.4
2018-Feb-20 15:30N 39°39' W 075°33'611.4
2018-Feb-20 15:00N 39°44' W 075°30'611.5
2018-Feb-20 14:30N 39°48' W 075°25'0 0.7
2018-Feb-20 14:00N 39°48' W 075°25'3 5.9
2018-Feb-20 13:30N 39°47' W 075°28'4 8.5
2018-Feb-20 13:00N 39°43' W 075°31'0 0.6
2018-Feb-20 12:30N 39°43' W 075°31'1 1.2
2018-Feb-20 12:01N 39°43' W 075°31'0 0.9
2018-Feb-20 11:31N 39°43' W 075°31'0 0.2
2018-Feb-20 11:00N 39°42' W 075°31'1 1.2
2018-Feb-20 10:30N 39°43' W 075°31'0 0.0
2018-Feb-20 10:01N 39°43' W 075°31'0 0.0
2018-Feb-20 09:31N 39°43' W 075°31'0 0.0
2018-Feb-20 09:01N 39°43' W 075°31'0 0.0
2018-Feb-20 08:30N 39°43' W 075°31'0 0.0
2018-Feb-20 08:01N 39°43' W 075°31'0 0.0
2018-Feb-20 07:30N 39°43' W 075°31'0 0.0
2018-Feb-20 07:01N 39°43' W 075°31'0 0.0
2018-Feb-20 06:31N 39°43' W 075°31'0 0.0
2018-Feb-20 06:01N 39°43' W 075°31'0 0.1
2018-Feb-20 05:31N 39°43' W 075°31'0 0.1
2018-Feb-20 05:00N 39°43' W 075°31'0 0.0
2018-Feb-20 04:30N 39°43' W 075°31'0 0.0
2018-Feb-20 04:00N 39°43' W 075°31'0 0.0
2018-Feb-20 03:31N 39°43' W 075°31'0 0.0
2018-Feb-20 03:00N 39°43' W 075°31'0 0.0
2018-Feb-20 02:30N 39°43' W 075°31'0 0.0
2018-Feb-20 02:00N 39°43' W 075°31'0 0.0
2018-Feb-20 01:31N 39°43' W 075°31'0 0.0
2018-Feb-20 01:00N 39°43' W 075°31'0 0.0
2018-Feb-20 00:30N 39°43' W 075°31'0 0.0
2018-Feb-20 00:00N 39°43' W 075°31'0 0.0
2018-Feb-19 23:30N 39°43' W 075°31'0 0.5
2018-Feb-19 23:01N 39°43' W 075°31'0 0.5
2018-Feb-19 22:31N 39°43' W 075°31'0 0.3
2018-Feb-19 22:01N 39°43' W 075°31'0 0.3
2018-Feb-19 21:31N 39°43' W 075°31'0 0.1
2018-Feb-19 21:00N 39°43' W 075°31'0 0.0
2018-Feb-19 20:30N 39°43' W 075°31'0 0.0
2018-Feb-19 20:01N 39°43' W 075°31'0 0.0
2018-Feb-19 19:30N 39°43' W 075°31'0 0.1
2018-Feb-19 19:00N 39°43' W 075°31'0 0.0
2018-Feb-19 18:30N 39°43' W 075°31'0 0.1
2018-Feb-19 18:01N 39°43' W 075°31'0 0.0
2018-Feb-19 17:31N 39°43' W 075°31'0 0.0
2018-Feb-19 17:00N 39°43' W 075°31'0 0.0
2018-Feb-19 16:31N 39°43' W 075°31'0 0.0
2018-Feb-19 16:01N 39°43' W 075°31'0 0.4
2018-Feb-19 15:30N 39°43' W 075°31'1 2.9
2018-Feb-19 15:00N 39°42' W 075°31'1 1.6
2018-Feb-19 14:30N 39°42' W 075°31'1 1.1
2018-Feb-19 14:01N 39°43' W 075°31'0 0.0
2018-Feb-19 13:31N 39°43' W 075°31'0 0.0
2018-Feb-19 13:01N 39°43' W 075°31'0 0.0
2018-Feb-19 12:30N 39°43' W 075°31'1 1.0
2018-Feb-19 12:00N 39°43' W 075°31'1 2.8
2018-Feb-19 11:30N 39°41' W 075°31'1 2.2
2018-Feb-19 11:00N 39°42' W 075°31'1 1.5
2018-Feb-19 10:30N 39°43' W 075°31'0 0.0
2018-Feb-19 10:00N 39°43' W 075°31'0 0.0
2018-Feb-19 09:30N 39°43' W 075°31'0 0.0
2018-Feb-19 09:00N 39°43' W 075°31'0 0.0
2018-Feb-19 08:30N 39°43' W 075°31'0 0.0
2018-Feb-19 08:01N 39°43' W 075°31'0 0.0
2018-Feb-19 07:31N 39°43' W 075°31'0 0.0
2018-Feb-19 07:00N 39°43' W 075°31'0 0.0
2018-Feb-19 06:31N 39°43' W 075°31'0 0.0
2018-Feb-19 06:01N 39°43' W 075°31'0 0.0
2018-Feb-19 05:30N 39°43' W 075°31'0 0.0
2018-Feb-19 05:00N 39°43' W 075°31'0 0.0
2018-Feb-19 04:30N 39°43' W 075°31'0 0.0
2018-Feb-19 04:01N 39°43' W 075°31'0 0.0
2018-Feb-19 03:30N 39°43' W 075°31'0 0.0
2018-Feb-19 03:00N 39°43' W 075°31'0 0.0
2018-Feb-19 02:31N 39°43' W 075°31'0 0.0
2018-Feb-19 02:01N 39°43' W 075°31'0 0.0
2018-Feb-19 01:30N 39°43' W 075°31'0 0.0
2018-Feb-19 01:00N 39°43' W 075°31'0 0.0
2018-Feb-19 00:30N 39°43' W 075°31'0 0.0
2018-Feb-18 23:59N 39°43' W 075°31'0 0.0
2018-Feb-18 23:30N 39°43' W 075°31'0 0.0
2018-Feb-18 23:01N 39°43' W 075°31'0 0.0
2018-Feb-18 22:31N 39°43' W 075°31'0 0.0
2018-Feb-18 22:00N 39°43' W 075°31'0 0.0
2018-Feb-18 21:30N 39°43' W 075°31'0 0.0
2018-Feb-18 21:00N 39°43' W 075°31'0 0.0
2018-Feb-18 20:30N 39°43' W 075°31'0 0.0
2018-Feb-18 20:00N 39°43' W 075°31'0 0.0
2018-Feb-18 19:30N 39°43' W 075°31'0 0.0
2018-Feb-18 19:01N 39°43' W 075°31'0 0.0
2018-Feb-18 18:31N 39°43' W 075°31'0 0.0
2018-Feb-18 18:00N 39°43' W 075°31'0 0.0
2018-Feb-18 17:30N 39°43' W 075°31'0 0.0
2018-Feb-18 17:01N 39°43' W 075°31'0 0.0
2018-Feb-18 16:30N 39°43' W 075°31'0 0.0
2018-Feb-18 16:00N 39°43' W 075°31'0 0.0
2018-Feb-18 15:31N 39°43' W 075°31'0 0.0
2018-Feb-18 15:00N 39°43' W 075°31'1 1.2
2018-Feb-18 14:30N 39°43' W 075°32'0 0.0
2018-Feb-18 14:00N 39°43' W 075°32'0 0.3
2018-Feb-18 13:30N 39°43' W 075°32'1 2.7
2018-Feb-18 13:00N 39°42' W 075°31'1 2.0
2018-Feb-18 12:31N 39°41' W 075°31'2 3.7
2018-Feb-18 12:00N 39°43' W 075°31'0 0.0
2018-Feb-18 11:30N 39°43' W 075°31'0 0.0
2018-Feb-18 11:00N 39°43' W 075°31'0 0.0
2018-Feb-18 10:30N 39°43' W 075°31'0 0.0
2018-Feb-18 10:00N 39°43' W 075°31'0 0.0
2018-Feb-18 09:31N 39°43' W 075°31'0 0.0
2018-Feb-18 09:00N 39°43' W 075°31'0 0.0
2018-Feb-18 08:30N 39°43' W 075°31'0 0.0
2018-Feb-18 08:01N 39°43' W 075°31'0 0.0
2018-Feb-18 07:30N 39°43' W 075°31'0 0.0
2018-Feb-18 07:00N 39°43' W 075°31'0 0.0
2018-Feb-18 06:30N 39°43' W 075°31'0 0.0
2018-Feb-18 06:01N 39°43' W 075°31'0 0.0
2018-Feb-18 05:31N 39°43' W 075°31'0 0.0
2018-Feb-18 05:00N 39°43' W 075°31'0 0.0
2018-Feb-18 04:31N 39°43' W 075°31'0 0.0
2018-Feb-18 04:00N 39°43' W 075°31'0 0.0
2018-Feb-18 03:30N 39°43' W 075°31'0 0.0
2018-Feb-18 03:01N 39°43' W 075°31'0 0.0
2018-Feb-18 02:30N 39°43' W 075°31'0 0.0
2018-Feb-18 02:00N 39°43' W 075°31'0 0.0
2018-Feb-18 01:31N 39°43' W 075°31'0 0.0
2018-Feb-18 01:00N 39°43' W 075°31'0 0.0
2018-Feb-18 00:30N 39°43' W 075°31'0 0.0
2018-Feb-18 00:01N 39°43' W 075°31'0 0.0
2018-Feb-17 23:30N 39°43' W 075°31'0 0.0
2018-Feb-17 23:00N 39°43' W 075°31'0 0.0
2018-Feb-17 22:30N 39°43' W 075°31'0 0.0
2018-Feb-17 22:00N 39°43' W 075°31'0 0.0
2018-Feb-17 21:30N 39°43' W 075°31'3 5.7
2018-Feb-17 21:00N 39°45' W 075°29'510.0
2018-Feb-17 20:31N 39°49' W 075°24'5 9.7
2018-Feb-17 20:00N 39°51' W 075°18'510.2
2018-Feb-17 19:30N 39°53' W 075°12'4 7.9
2018-Feb-17 19:01N 39°55' W 075°08'0 1.0
2018-Feb-17 18:30N 39°55' W 075°08'0 0.0
2018-Feb-17 18:00N 39°55' W 075°08'4 7.5
2018-Feb-17 17:30N 39°53' W 075°12'612.3
2018-Feb-17 17:00N 39°51' W 075°20'612.5
2018-Feb-17 16:30N 39°47' W 075°26'611.4
2018-Feb-17 16:00N 39°43' W 075°31'0 0.0
2018-Feb-17 15:30N 39°43' W 075°31'0 0.0
2018-Feb-17 15:01N 39°43' W 075°31'0 0.0
2018-Feb-17 14:31N 39°43' W 075°31'0 0.0
2018-Feb-17 14:01N 39°43' W 075°31'0 0.0
2018-Feb-17 13:30N 39°43' W 075°31'0 0.0
2018-Feb-17 13:00N 39°43' W 075°31'0 0.0
2018-Feb-17 12:30N 39°43' W 075°31'0 0.0
2018-Feb-17 12:00N 39°43' W 075°31'0 0.0
2018-Feb-17 11:29N 39°43' W 075°31'0 0.0
2018-Feb-17 11:00N 39°43' W 075°31'0 0.0
2018-Feb-17 10:30N 39°43' W 075°31'0 0.0
2018-Feb-17 10:00N 39°43' W 075°31'0 0.0
2018-Feb-17 09:30N 39°43' W 075°31'0 0.0
2018-Feb-17 09:00N 39°43' W 075°31'0 0.0
2018-Feb-17 08:29N 39°43' W 075°31'0 0.0
2018-Feb-17 07:58N 39°43' W 075°31'0 0.0
2018-Feb-17 07:28N 39°43' W 075°31'0 0.0
2018-Feb-17 07:00N 39°43' W 075°31'0 0.0
2018-Feb-17 06:30N 39°43' W 075°31'0 0.0
2018-Feb-17 05:59N 39°43' W 075°31'0 0.0
2018-Feb-17 05:30N 39°43' W 075°31'0 0.0
2018-Feb-17 04:58N 39°43' W 075°31'0 0.0
2018-Feb-17 04:30N 39°43' W 075°31'0 0.0
2018-Feb-17 03:59N 39°43' W 075°31'0 0.0
2018-Feb-17 03:30N 39°43' W 075°31'0 0.0
2018-Feb-17 02:55N 39°43' W 075°31'0 0.0
2018-Feb-17 02:30N 39°43' W 075°31'0 0.0
2018-Feb-17 02:00N 39°43' W 075°31'0 0.0
2018-Feb-17 01:30N 39°43' W 075°31'0 0.0
2018-Feb-17 01:00N 39°43' W 075°31'0 0.0
2018-Feb-17 00:29N 39°43' W 075°31'0 0.0
2018-Feb-16 23:59N 39°43' W 075°31'0 0.7
2018-Feb-16 23:28N 39°43' W 075°31'0 0.7
2018-Feb-16 22:59N 39°43' W 075°31'0 0.0
2018-Feb-16 22:30N 39°43' W 075°31'0 0.0
2018-Feb-16 21:59N 39°43' W 075°31'0 0.0
2018-Feb-16 21:30N 39°43' W 075°31'0 0.0
2018-Feb-16 21:00N 39°43' W 075°31'0 0.0
2018-Feb-16 20:29N 39°43' W 075°31'0 0.0
2018-Feb-16 20:00N 39°43' W 075°31'610.3
2018-Feb-16 19:25N 39°48' W 075°26'2 3.4
2018-Feb-16 18:54N 39°49' W 075°24'2 6.1
2018-Feb-16 18:31N 39°47' W 075°27'611.1
2018-Feb-16 18:00N 39°43' W 075°31'0 0.0
2018-Feb-16 17:30N 39°43' W 075°31'0 0.0
2018-Feb-16 17:01N 39°43' W 075°31'0 0.0
2018-Feb-16 16:30N 39°43' W 075°31'0 0.0
2018-Feb-16 16:00N 39°43' W 075°31'0 0.0
2018-Feb-16 15:30N 39°43' W 075°31'0 0.0
2018-Feb-16 15:00N 39°43' W 075°31'0 0.0
2018-Feb-16 14:30N 39°43' W 075°31'0 0.0
2018-Feb-16 14:00N 39°43' W 075°31'0 0.0
2018-Feb-16 13:30N 39°43' W 075°31'0 0.0
2018-Feb-16 13:00N 39°43' W 075°31'0 0.0
2018-Feb-16 12:30N 39°43' W 075°31'0 0.0
2018-Feb-16 12:00N 39°43' W 075°31'0 0.0
2018-Feb-16 11:30N 39°43' W 075°31'0 0.0
2018-Feb-16 11:01N 39°43' W 075°31'0 0.0
2018-Feb-16 10:30N 39°43' W 075°31'0 0.0
2018-Feb-16 10:00N 39°43' W 075°31'0 0.0
2018-Feb-16 09:30N 39°43' W 075°31'0 0.0
2018-Feb-16 09:00N 39°43' W 075°31'0 0.0
2018-Feb-16 08:30N 39°43' W 075°31'0 0.0
2018-Feb-16 08:00N 39°43' W 075°31'0 0.0
2018-Feb-16 07:30N 39°43' W 075°31'0 0.0
2018-Feb-16 07:00N 39°43' W 075°31'0 0.0
2018-Feb-16 06:31N 39°43' W 075°31'0 0.0
2018-Feb-16 06:00N 39°43' W 075°31'0 0.0
2018-Feb-16 05:30N 39°43' W 075°31'0 0.0
2018-Feb-16 05:00N 39°43' W 075°31'0 0.0
2018-Feb-16 04:31N 39°43' W 075°31'0 0.0
2018-Feb-16 04:00N 39°43' W 075°31'0 0.0
2018-Feb-16 03:30N 39°43' W 075°31'0 0.0
2018-Feb-16 03:00N 39°43' W 075°31'0 0.8
2018-Feb-16 02:31N 39°43' W 075°31'0 0.5
2018-Feb-16 02:00N 39°43' W 075°32'1 1.3
2018-Feb-16 01:31N 39°43' W 075°31'0 0.0
2018-Feb-16 01:00N 39°43' W 075°31'0 0.0
2018-Feb-16 00:30N 39°43' W 075°31'0 0.0
2018-Feb-16 00:00N 39°43' W 075°31'0 0.0
2018-Feb-15 23:30N 39°43' W 075°31'0 0.0
2018-Feb-15 23:00N 39°43' W 075°31'0 0.0
2018-Feb-15 22:31N 39°43' W 075°31'0 0.0
2018-Feb-15 22:00N 39°43' W 075°31'0 0.0
2018-Feb-15 21:30N 39°43' W 075°31'0 0.0
2018-Feb-15 21:00N 39°43' W 075°31'0 0.0
2018-Feb-15 20:31N 39°43' W 075°31'0 0.0
2018-Feb-15 20:00N 39°43' W 075°31'0 0.0
2018-Feb-15 19:30N 39°43' W 075°31'0 0.0
2018-Feb-15 19:00N 39°43' W 075°31'0 0.0
2018-Feb-15 18:30N 39°43' W 075°31'0 0.0
2018-Feb-15 17:59N 39°43' W 075°31'0 0.0
2018-Feb-15 17:30N 39°43' W 075°31'0 0.0
2018-Feb-15 17:00N 39°43' W 075°31'0 0.0
2018-Feb-15 16:30N 39°43' W 075°31'0 0.0
2018-Feb-15 16:01N 39°43' W 075°31'0 0.0
2018-Feb-15 15:31N 39°43' W 075°31'0 0.0
2018-Feb-15 15:00N 39°43' W 075°31'0 0.0
2018-Feb-15 14:30N 39°43' W 075°31'0 0.0
2018-Feb-15 14:00N 39°43' W 075°31'0 0.0
2018-Feb-15 13:31N 39°43' W 075°31'0 0.0
2018-Feb-15 13:01N 39°43' W 075°31'0 0.0
2018-Feb-15 12:30N 39°43' W 075°31'0 0.0
2018-Feb-15 12:00N 39°43' W 075°31'0 0.0
2018-Feb-15 11:31N 39°43' W 075°31'0 0.0
2018-Feb-15 11:00N 39°43' W 075°31'0 0.0
2018-Feb-15 10:30N 39°43' W 075°31'0 0.0
2018-Feb-15 10:00N 39°43' W 075°31'0 0.0
2018-Feb-15 09:30N 39°43' W 075°31'0 0.0
2018-Feb-15 09:00N 39°43' W 075°31'0 0.0
2018-Feb-15 08:30N 39°43' W 075°31'3 6.8
2018-Feb-15 08:00N 39°40' W 075°33'5 9.1
2018-Feb-15 07:30N 39°36' W 075°36'1 2.3
2018-Feb-15 07:01N 39°35' W 075°35'0 0.0
2018-Feb-15 06:31N 39°35' W 075°35'1 1.1
2018-Feb-15 06:01N 39°35' W 075°35'2 3.8
2018-Feb-15 05:30N 39°34' W 075°33'0 1.0
2018-Feb-15 05:00N 39°34' W 075°33'2 3.7
2018-Feb-15 04:30N 39°35' W 075°35'0 0.0
2018-Feb-15 04:00N 39°35' W 075°35'0 0.0
2018-Feb-15 03:30N 39°35' W 075°35'0 0.0
2018-Feb-15 03:00N 39°35' W 075°35'0 0.2
2018-Feb-15 02:30N 39°35' W 075°35'0 0.2
2018-Feb-15 02:00N 39°35' W 075°35'0 0.3
2018-Feb-15 01:30N 39°35' W 075°35'4 8.1
2018-Feb-15 01:00N 39°39' W 075°34'5 9.5
2018-Feb-15 00:30N 39°43' W 075°31'0 0.1
2018-Feb-15 00:00N 39°43' W 075°31'0 0.0
2018-Feb-14 23:30N 39°43' W 075°31'0 0.0
2018-Feb-14 23:00N 39°43' W 075°31'0 0.0
2018-Feb-14 22:30N 39°43' W 075°31'0 0.0
2018-Feb-14 22:00N 39°43' W 075°31'0 0.0
2018-Feb-14 21:30N 39°43' W 075°31'0 0.0
2018-Feb-14 21:00N 39°43' W 075°31'0 0.0
2018-Feb-14 20:30N 39°43' W 075°31'0 0.0
2018-Feb-14 20:00N 39°43' W 075°31'0 0.0
2018-Feb-14 19:30N 39°43' W 075°31'4 7.8
2018-Feb-14 19:00N 39°46' W 075°28'3 5.0
2018-Feb-14 18:30N 39°48' W 075°26'0 0.2
2018-Feb-14 18:00N 39°48' W 075°26'0 0.2
2018-Feb-14 17:30N 39°48' W 075°26'1 2.9
2018-Feb-14 17:00N 39°49' W 075°24'1 2.2
2018-Feb-14 16:30N 39°48' W 075°26'1 2.2
2018-Feb-14 16:00N 39°47' W 075°27'511.0
2018-Feb-14 15:30N 39°43' W 075°31'0 0.0
2018-Feb-14 15:00N 39°43' W 075°31'0 0.0
2018-Feb-14 14:30N 39°43' W 075°31'0 0.0
2018-Feb-14 14:00N 39°43' W 075°31'0 0.0
2018-Feb-14 13:30N 39°43' W 075°31'0 0.0
2018-Feb-14 13:00N 39°43' W 075°31'0 0.0
2018-Feb-14 12:30N 39°43' W 075°31'0 0.0
2018-Feb-14 12:00N 39°43' W 075°31'0 0.3
2018-Feb-14 11:30N 39°43' W 075°31'0 0.3
2018-Feb-14 11:00N 39°43' W 075°31'0 0.0
2018-Feb-14 10:30N 39°43' W 075°31'0 0.0
2018-Feb-14 10:00N 39°43' W 075°31'0 0.0
2018-Feb-14 09:30N 39°43' W 075°31'0 0.0
2018-Feb-14 09:00N 39°43' W 075°31'0 0.0
2018-Feb-14 08:30N 39°43' W 075°31'0 0.0
2018-Feb-14 08:00N 39°43' W 075°31'3 5.4
2018-Feb-14 07:30N 39°40' W 075°32'5 9.3
2018-Feb-14 07:00N 39°37' W 075°36'2 3.7
2018-Feb-14 06:30N 39°35' W 075°36'0 0.0
2018-Feb-14 06:00N 39°35' W 075°36'0 0.0
2018-Feb-14 05:30N 39°35' W 075°36'1 1.5
2018-Feb-14 05:00N 39°35' W 075°35'1 1.4
2018-Feb-14 04:30N 39°35' W 075°36'4 8.3
2018-Feb-14 04:00N 39°39' W 075°34'5 9.1
2018-Feb-14 03:30N 39°43' W 075°31'0 0.0
2018-Feb-14 03:00N 39°43' W 075°31'0 0.0
2018-Feb-14 02:30N 39°43' W 075°31'0 0.0
2018-Feb-14 02:00N 39°43' W 075°31'0 0.0
2018-Feb-14 01:30N 39°43' W 075°31'0 0.0
2018-Feb-14 01:00N 39°43' W 075°31'0 0.0
2018-Feb-14 00:30N 39°43' W 075°31'0 0.0
2018-Feb-14 00:00N 39°43' W 075°31'0 0.0
2018-Feb-13 23:30N 39°43' W 075°31'0 0.0
2018-Feb-13 23:00N 39°43' W 075°31'0 0.0
2018-Feb-13 22:30N 39°43' W 075°31'0 0.0
2018-Feb-13 22:00N 39°43' W 075°31'0 0.0
2018-Feb-13 21:30N 39°43' W 075°31'0 0.0
2018-Feb-13 21:00N 39°43' W 075°31'0 0.0
2018-Feb-13 20:30N 39°43' W 075°31'0 0.0
2018-Feb-13 20:00N 39°43' W 075°31'0 0.0
2018-Feb-13 19:30N 39°43' W 075°31'0 0.0
2018-Feb-13 19:00N 39°43' W 075°31'0 0.0
2018-Feb-13 18:30N 39°43' W 075°31'0 0.0
2018-Feb-13 18:00N 39°43' W 075°31'1 1.2
2018-Feb-13 17:30N 39°43' W 075°32'0 0.6
2018-Feb-13 17:00N 39°43' W 075°31'1 2.1
2018-Feb-13 16:30N 39°42' W 075°31'1 1.7
2018-Feb-13 16:00N 39°43' W 075°31'0 0.0
2018-Feb-13 15:30N 39°43' W 075°31'0 0.0
2018-Feb-13 15:00N 39°43' W 075°31'0 0.0
2018-Feb-13 14:30N 39°43' W 075°31'0 0.0
2018-Feb-13 14:00N 39°43' W 075°31'0 0.0
2018-Feb-13 13:30N 39°43' W 075°31'0 0.0
2018-Feb-13 13:00N 39°43' W 075°31'0 0.0
2018-Feb-13 12:30N 39°43' W 075°31'0 0.0
2018-Feb-13 12:00N 39°43' W 075°31'2 3.8
2018-Feb-13 11:30N 39°45' W 075°31'2 4.0
2018-Feb-13 11:00N 39°43' W 075°31'3 5.1
2018-Feb-13 10:30N 39°40' W 075°32'2 3.7
2018-Feb-13 10:00N 39°42' W 075°31'1 2.1
2018-Feb-13 09:30N 39°43' W 075°31'0 0.8
2018-Feb-13 09:00N 39°43' W 075°31'0 0.0
2018-Feb-13 08:30N 39°43' W 075°31'0 0.0
2018-Feb-13 08:00N 39°43' W 075°31'0 0.0
2018-Feb-13 07:30N 39°43' W 075°31'0 0.0
2018-Feb-13 07:00N 39°43' W 075°31'0 0.0
2018-Feb-13 06:30N 39°43' W 075°31'0 0.0
2018-Feb-13 06:00N 39°43' W 075°31'0 0.0
2018-Feb-13 05:29N 39°43' W 075°31'0 0.4
2018-Feb-13 05:00N 39°43' W 075°31'0 1.0
2018-Feb-13 04:30N 39°43' W 075°31'2 4.1
2018-Feb-13 04:00N 39°41' W 075°31'2 3.5
2018-Feb-13 03:30N 39°43' W 075°31'0 0.9
2018-Feb-13 03:00N 39°43' W 075°31'0 0.0
2018-Feb-13 02:30N 39°43' W 075°31'0 0.0
2018-Feb-13 02:00N 39°43' W 075°31'0 0.0
2018-Feb-13 01:30N 39°43' W 075°31'0 0.0
2018-Feb-13 01:00N 39°43' W 075°31'0 0.0
2018-Feb-13 00:30N 39°43' W 075°31'0 0.0
2018-Feb-13 00:00N 39°43' W 075°31'0 0.0
2018-Feb-12 23:30N 39°43' W 075°31'0 0.0
2018-Feb-12 23:00N 39°43' W 075°31'0 0.0
2018-Feb-12 22:30N 39°43' W 075°31'0 0.0
2018-Feb-12 22:00N 39°43' W 075°31'0 0.0
2018-Feb-12 21:30N 39°43' W 075°31'0 0.0
2018-Feb-12 21:00N 39°43' W 075°31'0 0.0
2018-Feb-12 20:30N 39°43' W 075°31'0 0.0
2018-Feb-12 20:00N 39°43' W 075°31'0 0.0
2018-Feb-12 19:30N 39°43' W 075°31'0 0.0
2018-Feb-12 19:00N 39°43' W 075°31'0 0.0
2018-Feb-12 18:30N 39°43' W 075°31'0 0.0
2018-Feb-12 18:00N 39°43' W 075°31'3 5.8
2018-Feb-12 17:30N 39°40' W 075°32'5 9.5
2018-Feb-12 17:00N 39°37' W 075°36'2 3.6
2018-Feb-12 16:30N 39°35' W 075°35'0 0.1
2018-Feb-12 16:00N 39°35' W 075°35'0 0.0
2018-Feb-12 15:30N 39°35' W 075°35'0 0.1
2018-Feb-12 15:00N 39°35' W 075°35'0 0.0
2018-Feb-12 14:30N 39°35' W 075°35'0 0.0
2018-Feb-12 14:00N 39°35' W 075°35'0 0.1
2018-Feb-12 13:30N 39°35' W 075°35'0 0.0
2018-Feb-12 13:00N 39°35' W 075°35'0 0.0
2018-Feb-12 12:30N 39°35' W 075°35'0 0.0
2018-Feb-12 12:00N 39°35' W 075°35'0 0.0
2018-Feb-12 11:30N 39°35' W 075°35'4 7.0
2018-Feb-12 11:00N 39°32' W 075°33'3 7.0
2018-Feb-12 10:30N 39°35' W 075°35'0 0.0
2018-Feb-12 10:00N 39°35' W 075°35'0 0.0
2018-Feb-12 09:30N 39°35' W 075°35'0 0.0
2018-Feb-12 09:00N 39°35' W 075°35'0 0.0
2018-Feb-12 08:30N 39°35' W 075°35'0 0.0
2018-Feb-12 08:00N 39°35' W 075°35'0 0.0
2018-Feb-12 07:30N 39°35' W 075°35'0 0.0
2018-Feb-12 07:00N 39°35' W 075°35'0 0.0
2018-Feb-12 06:30N 39°35' W 075°35'0 0.0
2018-Feb-12 06:00N 39°35' W 075°35'0 0.0
2018-Feb-12 05:30N 39°35' W 075°35'3 5.2
2018-Feb-12 05:00N 39°33' W 075°33'1 1.4
2018-Feb-12 04:30N 39°34' W 075°33'2 4.2
2018-Feb-12 04:00N 39°35' W 075°35'0 0.0
2018-Feb-12 03:30N 39°35' W 075°35'0 0.0
2018-Feb-12 03:00N 39°35' W 075°35'0 0.0
2018-Feb-12 02:30N 39°35' W 075°35'0 0.0
2018-Feb-12 02:00N 39°35' W 075°35'0 0.0
2018-Feb-12 01:30N 39°35' W 075°35'0 0.0
2018-Feb-12 01:00N 39°35' W 075°35'1 2.3
2018-Feb-12 00:30N 39°34' W 075°34'1 2.5
2018-Feb-12 00:00N 39°35' W 075°36'0 0.4
2018-Feb-11 23:30N 39°35' W 075°35'1 2.4
2018-Feb-11 23:00N 39°34' W 075°34'2 3.9
2018-Feb-11 22:30N 39°33' W 075°33'3 6.4
2018-Feb-11 22:00N 39°35' W 075°36'0 0.0
2018-Feb-11 21:30N 39°35' W 075°36'0 0.0
2018-Feb-11 21:00N 39°35' W 075°36'0 0.0
2018-Feb-11 20:30N 39°35' W 075°36'0 0.0
2018-Feb-11 20:00N 39°35' W 075°36'0 0.0
2018-Feb-11 19:30N 39°35' W 075°36'0 0.0
2018-Feb-11 19:00N 39°35' W 075°36'0 0.0
2018-Feb-11 18:30N 39°35' W 075°36'0 0.0
2018-Feb-11 18:01N 39°35' W 075°36'0 0.0
2018-Feb-11 17:30N 39°35' W 075°36'0 0.0
2018-Feb-11 17:00N 39°35' W 075°36'0 0.0
2018-Feb-11 16:30N 39°35' W 075°36'0 0.0
2018-Feb-11 16:00N 39°35' W 075°36'0 0.0
2018-Feb-11 15:30N 39°35' W 075°36'0 0.0
2018-Feb-11 15:00N 39°35' W 075°36'0 0.0
2018-Feb-11 14:30N 39°35' W 075°36'0 0.0
2018-Feb-11 14:00N 39°35' W 075°36'0 0.0
2018-Feb-11 13:30N 39°35' W 075°36'0 0.0
2018-Feb-11 13:00N 39°35' W 075°36'0 0.0
2018-Feb-11 12:30N 39°35' W 075°36'0 0.0
2018-Feb-11 12:00N 39°35' W 075°36'  
Track history (hours):
 
Tides and Currents Weather Stations Pressure Air Temp Water Temp Dewpoint Dewpoint Depression Visibility Wind Speed Wind Dir Waves Ship Positions

Sally

Owner: Wilmington Tug, Inc., New Castle, DE. More information available from US FCC via Universal Licensing System and Coast Guard Vessel Documentation Center.

Last reported at 2018-Feb-21 11:31 UTC. Time now 2018-Feb-21 11:38 UTC.
Position N 39°43' W 075°31'.

Length 24 m; draft 4 m.

Type: Tug. MMSI: 367012660.

Date/timePositionNaut miles runAvg speedWind from/ knotsBaromVisibWave heightAir tempDewpointWater temp
2018-Feb-21 11:31N 39°43' W 075°31'0 0.0
2018-Feb-21 11:00N 39°43' W 075°31'0 0.0
2018-Feb-21 10:31N 39°43' W 075°31'0 0.0
2018-Feb-21 10:00N 39°43' W 075°31'0 0.0
2018-Feb-21 09:31N 39°43' W 075°31'0 0.0
2018-Feb-21 09:01N 39°43' W 075°31'0 0.0
2018-Feb-21 08:31N 39°43' W 075°31'0 0.0
2018-Feb-21 08:01N 39°43' W 075°31'0 0.0
2018-Feb-21 07:30N 39°43' W 075°31'0 0.0
2018-Feb-21 07:00N 39°43' W 075°31'0 0.0
2018-Feb-21 06:30N 39°43' W 075°31'1 2.5
2018-Feb-21 06:00N 39°44' W 075°30'4 8.9
2018-Feb-21 05:30N 39°48' W 075°27'1 1.5
2018-Feb-21 05:00N 39°48' W 075°26'0 0.0
2018-Feb-21 04:30N 39°48' W 075°26'4 7.3
2018-Feb-21 04:00N 39°45' W 075°29'3 5.6
2018-Feb-21 03:30N 39°43' W 075°31'0 0.0
2018-Feb-21 03:00N 39°43' W 075°31'0 0.0
2018-Feb-21 02:30N 39°43' W 075°31'0 0.0
2018-Feb-21 02:00N 39°43' W 075°31'0 0.0
2018-Feb-21 01:30N 39°43' W 075°31'0 0.0
2018-Feb-21 01:00N 39°43' W 075°31'0 0.0
2018-Feb-21 00:31N 39°43' W 075°31'3 5.6
2018-Feb-21 00:00N 39°40' W 075°32'5 9.3
2018-Feb-20 23:30N 39°37' W 075°36'2 3.8
2018-Feb-20 23:00N 39°35' W 075°35'0 0.1
2018-Feb-20 22:31N 39°35' W 075°36'0 0.1
2018-Feb-20 22:00N 39°35' W 075°36'4 8.2
2018-Feb-20 21:31N 39°39' W 075°34'5 9.2
2018-Feb-20 21:00N 39°43' W 075°31'0 0.0
2018-Feb-20 20:31N 39°43' W 075°31'0 0.0
2018-Feb-20 20:01N 39°43' W 075°31'0 0.0
2018-Feb-20 19:30N 39°43' W 075°31'0 0.0
2018-Feb-20 19:00N 39°43' W 075°31'0 0.0
2018-Feb-20 18:31N 39°43' W 075°31'0 0.0
2018-Feb-20 18:01N 39°43' W 075°31'0 0.0
2018-Feb-20 17:31N 39°43' W 075°31'0 0.1
2018-Feb-20 17:00N 39°43' W 075°31'2 4.8
2018-Feb-20 16:31N 39°41' W 075°32'510.7
2018-Feb-20 16:01N 39°36' W 075°34'3 6.4
2018-Feb-20 15:30N 39°39' W 075°33'611.4
2018-Feb-20 15:00N 39°44' W 075°30'611.5
2018-Feb-20 14:30N 39°48' W 075°25'0 0.7
2018-Feb-20 14:00N 39°48' W 075°25'3 5.9
2018-Feb-20 13:30N 39°47' W 075°28'4 8.5
2018-Feb-20 13:00N 39°43' W 075°31'0 0.6
2018-Feb-20 12:30N 39°43' W 075°31'1 1.2
2018-Feb-20 12:01N 39°43' W 075°31'0 0.9
2018-Feb-20 11:31N 39°43' W 075°31'0 0.2
2018-Feb-20 11:00N 39°42' W 075°31'1 1.2
2018-Feb-20 10:30N 39°43' W 075°31'0 0.0
2018-Feb-20 10:01N 39°43' W 075°31'0 0.0
2018-Feb-20 09:31N 39°43' W 075°31'0 0.0
2018-Feb-20 09:01N 39°43' W 075°31'0 0.0
2018-Feb-20 08:30N 39°43' W 075°31'0 0.0
2018-Feb-20 08:01N 39°43' W 075°31'0 0.0
2018-Feb-20 07:30N 39°43' W 075°31'0 0.0
2018-Feb-20 07:01N 39°43' W 075°31'0 0.0
2018-Feb-20 06:31N 39°43' W 075°31'0 0.0
2018-Feb-20 06:01N 39°43' W 075°31'0 0.1
2018-Feb-20 05:31N 39°43' W 075°31'0 0.1
2018-Feb-20 05:00N 39°43' W 075°31'0 0.0
2018-Feb-20 04:30N 39°43' W 075°31'0 0.0
2018-Feb-20 04:00N 39°43' W 075°31'0 0.0
2018-Feb-20 03:31N 39°43' W 075°31'0 0.0
2018-Feb-20 03:00N 39°43' W 075°31'0 0.0
2018-Feb-20 02:30N 39°43' W 075°31'0 0.0
2018-Feb-20 02:00N 39°43' W 075°31'0 0.0
2018-Feb-20 01:31N 39°43' W 075°31'0 0.0
2018-Feb-20 01:00N 39°43' W 075°31'0 0.0
2018-Feb-20 00:30N 39°43' W 075°31'0 0.0
2018-Feb-20 00:00N 39°43' W 075°31'0 0.0
2018-Feb-19 23:30N 39°43' W 075°31'0 0.5
2018-Feb-19 23:01N 39°43' W 075°31'0 0.5
2018-Feb-19 22:31N 39°43' W 075°31'0 0.3
2018-Feb-19 22:01N 39°43' W 075°31'0 0.3
2018-Feb-19 21:31N 39°43' W 075°31'0 0.1
2018-Feb-19 21:00N 39°43' W 075°31'0 0.0
2018-Feb-19 20:30N 39°43' W 075°31'0 0.0
2018-Feb-19 20:01N 39°43' W 075°31'0 0.0
2018-Feb-19 19:30N 39°43' W 075°31'0 0.1
2018-Feb-19 19:00N 39°43' W 075°31'0 0.0
2018-Feb-19 18:30N 39°43' W 075°31'0 0.1
2018-Feb-19 18:01N 39°43' W 075°31'0 0.0
2018-Feb-19 17:31N 39°43' W 075°31'0 0.0
2018-Feb-19 17:00N 39°43' W 075°31'0 0.0
2018-Feb-19 16:31N 39°43' W 075°31'0 0.0
2018-Feb-19 16:01N 39°43' W 075°31'0 0.4
2018-Feb-19 15:30N 39°43' W 075°31'1 2.9
2018-Feb-19 15:00N 39°42' W 075°31'1 1.6
2018-Feb-19 14:30N 39°42' W 075°31'1 1.1
2018-Feb-19 14:01N 39°43' W 075°31'0 0.0
2018-Feb-19 13:31N 39°43' W 075°31'0 0.0
2018-Feb-19 13:01N 39°43' W 075°31'0 0.0
2018-Feb-19 12:30N 39°43' W 075°31'1 1.0
2018-Feb-19 12:00N 39°43' W 075°31'1 2.8
2018-Feb-19 11:30N 39°41' W 075°31'1 2.2
2018-Feb-19 11:00N 39°42' W 075°31'1 1.5
2018-Feb-19 10:30N 39°43' W 075°31'0 0.0
2018-Feb-19 10:00N 39°43' W 075°31'0 0.0
2018-Feb-19 09:30N 39°43' W 075°31'0 0.0
2018-Feb-19 09:00N 39°43' W 075°31'0 0.0
2018-Feb-19 08:30N 39°43' W 075°31'0 0.0
2018-Feb-19 08:01N 39°43' W 075°31'0 0.0
2018-Feb-19 07:31N 39°43' W 075°31'0 0.0
2018-Feb-19 07:00N 39°43' W 075°31'0 0.0
2018-Feb-19 06:31N 39°43' W 075°31'0 0.0
2018-Feb-19 06:01N 39°43' W 075°31'0 0.0
2018-Feb-19 05:30N 39°43' W 075°31'0 0.0
2018-Feb-19 05:00N 39°43' W 075°31'0 0.0
2018-Feb-19 04:30N 39°43' W 075°31'0 0.0
2018-Feb-19 04:01N 39°43' W 075°31'0 0.0
2018-Feb-19 03:30N 39°43' W 075°31'0 0.0
2018-Feb-19 03:00N 39°43' W 075°31'0 0.0
2018-Feb-19 02:31N 39°43' W 075°31'0 0.0
2018-Feb-19 02:01N 39°43' W 075°31'0 0.0
2018-Feb-19 01:30N 39°43' W 075°31'0 0.0
2018-Feb-19 01:00N 39°43' W 075°31'0 0.0
2018-Feb-19 00:30N 39°43' W 075°31'0 0.0
2018-Feb-18 23:59N 39°43' W 075°31'0 0.0
2018-Feb-18 23:30N 39°43' W 075°31'0 0.0
2018-Feb-18 23:01N 39°43' W 075°31'0 0.0
2018-Feb-18 22:31N 39°43' W 075°31'0 0.0
2018-Feb-18 22:00N 39°43' W 075°31'0 0.0
2018-Feb-18 21:30N 39°43' W 075°31'0 0.0
2018-Feb-18 21:00N 39°43' W 075°31'0 0.0
2018-Feb-18 20:30N 39°43' W 075°31'0 0.0
2018-Feb-18 20:00N 39°43' W 075°31'0 0.0
2018-Feb-18 19:30N 39°43' W 075°31'0 0.0
2018-Feb-18 19:01N 39°43' W 075°31'0 0.0
2018-Feb-18 18:31N 39°43' W 075°31'0 0.0
2018-Feb-18 18:00N 39°43' W 075°31'0 0.0
2018-Feb-18 17:30N 39°43' W 075°31'0 0.0
2018-Feb-18 17:01N 39°43' W 075°31'0 0.0
2018-Feb-18 16:30N 39°43' W 075°31'0 0.0
2018-Feb-18 16:00N 39°43' W 075°31'0 0.0
2018-Feb-18 15:31N 39°43' W 075°31'0 0.0
2018-Feb-18 15:00N 39°43' W 075°31'1 1.2
2018-Feb-18 14:30N 39°43' W 075°32'0 0.0
2018-Feb-18 14:00N 39°43' W 075°32'0 0.3
2018-Feb-18 13:30N 39°43' W 075°32'1 2.7
2018-Feb-18 13:00N 39°42' W 075°31'1 2.0
2018-Feb-18 12:31N 39°41' W 075°31'2 3.7
2018-Feb-18 12:00N 39°43' W 075°31'0 0.0
2018-Feb-18 11:30N 39°43' W 075°31'0 0.0
2018-Feb-18 11:00N 39°43' W 075°31'0 0.0
2018-Feb-18 10:30N 39°43' W 075°31'0 0.0
2018-Feb-18 10:00N 39°43' W 075°31'0 0.0
2018-Feb-18 09:31N 39°43' W 075°31'0 0.0
2018-Feb-18 09:00N 39°43' W 075°31'0 0.0
2018-Feb-18 08:30N 39°43' W 075°31'0 0.0
2018-Feb-18 08:01N 39°43' W 075°31'0 0.0
2018-Feb-18 07:30N 39°43' W 075°31'0 0.0
2018-Feb-18 07:00N 39°43' W 075°31'0 0.0
2018-Feb-18 06:30N 39°43' W 075°31'0 0.0
2018-Feb-18 06:01N 39°43' W 075°31'0 0.0
2018-Feb-18 05:31N 39°43' W 075°31'0 0.0
2018-Feb-18 05:00N 39°43' W 075°31'0 0.0
2018-Feb-18 04:31N 39°43' W 075°31'0 0.0
2018-Feb-18 04:00N 39°43' W 075°31'0 0.0
2018-Feb-18 03:30N 39°43' W 075°31'0 0.0
2018-Feb-18 03:01N 39°43' W 075°31'0 0.0
2018-Feb-18 02:30N 39°43' W 075°31'0 0.0
2018-Feb-18 02:00N 39°43' W 075°31'0 0.0
2018-Feb-18 01:31N 39°43' W 075°31'0 0.0
2018-Feb-18 01:00N 39°43' W 075°31'0 0.0
2018-Feb-18 00:30N 39°43' W 075°31'0 0.0
2018-Feb-18 00:01N 39°43' W 075°31'0 0.0
2018-Feb-17 23:30N 39°43' W 075°31'0 0.0
2018-Feb-17 23:00N 39°43' W 075°31'0 0.0
2018-Feb-17 22:30N 39°43' W 075°31'0 0.0
2018-Feb-17 22:00N 39°43' W 075°31'0 0.0
2018-Feb-17 21:30N 39°43' W 075°31'3 5.7
2018-Feb-17 21:00N 39°45' W 075°29'510.0
2018-Feb-17 20:31N 39°49' W 075°24'5 9.7
2018-Feb-17 20:00N 39°51' W 075°18'510.2
2018-Feb-17 19:30N 39°53' W 075°12'4 7.9
2018-Feb-17 19:01N 39°55' W 075°08'0 1.0
2018-Feb-17 18:30N 39°55' W 075°08'0 0.0
2018-Feb-17 18:00N 39°55' W 075°08'4 7.5
2018-Feb-17 17:30N 39°53' W 075°12'612.3
2018-Feb-17 17:00N 39°51' W 075°20'612.5
2018-Feb-17 16:30N 39°47' W 075°26'611.4
2018-Feb-17 16:00N 39°43' W 075°31'0 0.0
2018-Feb-17 15:30N 39°43' W 075°31'0 0.0
2018-Feb-17 15:01N 39°43' W 075°31'0 0.0
2018-Feb-17 14:31N 39°43' W 075°31'0 0.0
2018-Feb-17 14:01N 39°43' W 075°31'0 0.0
2018-Feb-17 13:30N 39°43' W 075°31'0 0.0
2018-Feb-17 13:00N 39°43' W 075°31'0 0.0
2018-Feb-17 12:30N 39°43' W 075°31'0 0.0
2018-Feb-17 12:00N 39°43' W 075°31'0 0.0
2018-Feb-17 11:29N 39°43' W 075°31'0 0.0
2018-Feb-17 11:00N 39°43' W 075°31'0 0.0
2018-Feb-17 10:30N 39°43' W 075°31'0 0.0
2018-Feb-17 10:00N 39°43' W 075°31'0 0.0
2018-Feb-17 09:30N 39°43' W 075°31'0 0.0
2018-Feb-17 09:00N 39°43' W 075°31'0 0.0
2018-Feb-17 08:29N 39°43' W 075°31'0 0.0
2018-Feb-17 07:58N 39°43' W 075°31'0 0.0
2018-Feb-17 07:28N 39°43' W 075°31'0 0.0
2018-Feb-17 07:00N 39°43' W 075°31'0 0.0
2018-Feb-17 06:30N 39°43' W 075°31'0 0.0
2018-Feb-17 05:59N 39°43' W 075°31'0 0.0
2018-Feb-17 05:30N 39°43' W 075°31'0 0.0
2018-Feb-17 04:58N 39°43' W 075°31'0 0.0
2018-Feb-17 04:30N 39°43' W 075°31'0 0.0
2018-Feb-17 03:59N 39°43' W 075°31'0 0.0
2018-Feb-17 03:30N 39°43' W 075°31'0 0.0
2018-Feb-17 02:55N 39°43' W 075°31'0 0.0
2018-Feb-17 02:30N 39°43' W 075°31'0 0.0
2018-Feb-17 02:00N 39°43' W 075°31'0 0.0
2018-Feb-17 01:30N 39°43' W 075°31'0 0.0
2018-Feb-17 01:00N 39°43' W 075°31'0 0.0
2018-Feb-17 00:29N 39°43' W 075°31'0 0.0
2018-Feb-16 23:59N 39°43' W 075°31'0 0.7
2018-Feb-16 23:28N 39°43' W 075°31'0 0.7
2018-Feb-16 22:59N 39°43' W 075°31'0 0.0
2018-Feb-16 22:30N 39°43' W 075°31'0 0.0
2018-Feb-16 21:59N 39°43' W 075°31'0 0.0
2018-Feb-16 21:30N 39°43' W 075°31'0 0.0
2018-Feb-16 21:00N 39°43' W 075°31'0 0.0
2018-Feb-16 20:29N 39°43' W 075°31'0 0.0
2018-Feb-16 20:00N 39°43' W 075°31'610.3
2018-Feb-16 19:25N 39°48' W 075°26'2 3.4
2018-Feb-16 18:54N 39°49' W 075°24'2 6.1
2018-Feb-16 18:31N 39°47' W 075°27'611.1
2018-Feb-16 18:00N 39°43' W 075°31'0 0.0
2018-Feb-16 17:30N 39°43' W 075°31'0 0.0
2018-Feb-16 17:01N 39°43' W 075°31'0 0.0
2018-Feb-16 16:30N 39°43' W 075°31'0 0.0
2018-Feb-16 16:00N 39°43' W 075°31'0 0.0
2018-Feb-16 15:30N 39°43' W 075°31'0 0.0
2018-Feb-16 15:00N 39°43' W 075°31'0 0.0
2018-Feb-16 14:30N 39°43' W 075°31'0 0.0
2018-Feb-16 14:00N 39°43' W 075°31'0 0.0
2018-Feb-16 13:30N 39°43' W 075°31'0 0.0
2018-Feb-16 13:00N 39°43' W 075°31'0 0.0
2018-Feb-16 12:30N 39°43' W 075°31'0 0.0
2018-Feb-16 12:00N 39°43' W 075°31'0 0.0
2018-Feb-16 11:30N 39°43' W 075°31'0 0.0
2018-Feb-16 11:01N 39°43' W 075°31'0 0.0
2018-Feb-16 10:30N 39°43' W 075°31'0 0.0
2018-Feb-16 10:00N 39°43' W 075°31'0 0.0
2018-Feb-16 09:30N 39°43' W 075°31'0 0.0
2018-Feb-16 09:00N 39°43' W 075°31'0 0.0
2018-Feb-16 08:30N 39°43' W 075°31'0 0.0
2018-Feb-16 08:00N 39°43' W 075°31'0 0.0
2018-Feb-16 07:30N 39°43' W 075°31'0 0.0
2018-Feb-16 07:00N 39°43' W 075°31'0 0.0
2018-Feb-16 06:31N 39°43' W 075°31'0 0.0
2018-Feb-16 06:00N 39°43' W 075°31'0 0.0
2018-Feb-16 05:30N 39°43' W 075°31'0 0.0
2018-Feb-16 05:00N 39°43' W 075°31'0 0.0
2018-Feb-16 04:31N 39°43' W 075°31'0 0.0
2018-Feb-16 04:00N 39°43' W 075°31'0 0.0
2018-Feb-16 03:30N 39°43' W 075°31'0 0.0
2018-Feb-16 03:00N 39°43' W 075°31'0 0.8
2018-Feb-16 02:31N 39°43' W 075°31'0 0.5
2018-Feb-16 02:00N 39°43' W 075°32'1 1.3
2018-Feb-16 01:31N 39°43' W 075°31'0 0.0
2018-Feb-16 01:00N 39°43' W 075°31'0 0.0
2018-Feb-16 00:30N 39°43' W 075°31'0 0.0
2018-Feb-16 00:00N 39°43' W 075°31'0 0.0
2018-Feb-15 23:30N 39°43' W 075°31'0 0.0
2018-Feb-15 23:00N 39°43' W 075°31'0 0.0
2018-Feb-15 22:31N 39°43' W 075°31'0 0.0
2018-Feb-15 22:00N 39°43' W 075°31'0 0.0
2018-Feb-15 21:30N 39°43' W 075°31'0 0.0
2018-Feb-15 21:00N 39°43' W 075°31'0 0.0
2018-Feb-15 20:31N 39°43' W 075°31'0 0.0
2018-Feb-15 20:00N 39°43' W 075°31'0 0.0
2018-Feb-15 19:30N 39°43' W 075°31'0 0.0
2018-Feb-15 19:00N 39°43' W 075°31'0 0.0
2018-Feb-15 18:30N 39°43' W 075°31'0 0.0
2018-Feb-15 17:59N 39°43' W 075°31'0 0.0
2018-Feb-15 17:30N 39°43' W 075°31'0 0.0
2018-Feb-15 17:00N 39°43' W 075°31'0 0.0
2018-Feb-15 16:30N 39°43' W 075°31'0 0.0
2018-Feb-15 16:01N 39°43' W 075°31'0 0.0
2018-Feb-15 15:31N 39°43' W 075°31'0 0.0
2018-Feb-15 15:00N 39°43' W 075°31'0 0.0
2018-Feb-15 14:30N 39°43' W 075°31'0 0.0
2018-Feb-15 14:00N 39°43' W 075°31'0 0.0
2018-Feb-15 13:31N 39°43' W 075°31'0 0.0
2018-Feb-15 13:01N 39°43' W 075°31'0 0.0
2018-Feb-15 12:30N 39°43' W 075°31'0 0.0
2018-Feb-15 12:00N 39°43' W 075°31'0 0.0
2018-Feb-15 11:31N 39°43' W 075°31'0 0.0
2018-Feb-15 11:00N 39°43' W 075°31'0 0.0
2018-Feb-15 10:30N 39°43' W 075°31'0 0.0
2018-Feb-15 10:00N 39°43' W 075°31'0 0.0
2018-Feb-15 09:30N 39°43' W 075°31'0 0.0
2018-Feb-15 09:00N 39°43' W 075°31'0 0.0
2018-Feb-15 08:30N 39°43' W 075°31'3 6.8
2018-Feb-15 08:00N 39°40' W 075°33'5 9.1
2018-Feb-15 07:30N 39°36' W 075°36'1 2.3
2018-Feb-15 07:01N 39°35' W 075°35'0 0.0
2018-Feb-15 06:31N 39°35' W 075°35'1 1.1
2018-Feb-15 06:01N 39°35' W 075°35'2 3.8
2018-Feb-15 05:30N 39°34' W 075°33'0 1.0
2018-Feb-15 05:00N 39°34' W 075°33'2 3.7
2018-Feb-15 04:30N 39°35' W 075°35'0 0.0
2018-Feb-15 04:00N 39°35' W 075°35'0 0.0
2018-Feb-15 03:30N 39°35' W 075°35'0 0.0
2018-Feb-15 03:00N 39°35' W 075°35'0 0.2
2018-Feb-15 02:30N 39°35' W 075°35'0 0.2
2018-Feb-15 02:00N 39°35' W 075°35'0 0.3
2018-Feb-15 01:30N 39°35' W 075°35'4 8.1
2018-Feb-15 01:00N 39°39' W 075°34'5 9.5
2018-Feb-15 00:30N 39°43' W 075°31'0 0.1
2018-Feb-15 00:00N 39°43' W 075°31'0 0.0
2018-Feb-14 23:30N 39°43' W 075°31'0 0.0
2018-Feb-14 23:00N 39°43' W 075°31'0 0.0
2018-Feb-14 22:30N 39°43' W 075°31'0 0.0
2018-Feb-14 22:00N 39°43' W 075°31'0 0.0
2018-Feb-14 21:30N 39°43' W 075°31'0 0.0
2018-Feb-14 21:00N 39°43' W 075°31'0 0.0
2018-Feb-14 20:30N 39°43' W 075°31'0 0.0
2018-Feb-14 20:00N 39°43' W 075°31'0 0.0
2018-Feb-14 19:30N 39°43' W 075°31'4 7.8
2018-Feb-14 19:00N 39°46' W 075°28'3 5.0
2018-Feb-14 18:30N 39°48' W 075°26'0 0.2
2018-Feb-14 18:00N 39°48' W 075°26'0 0.2
2018-Feb-14 17:30N 39°48' W 075°26'1 2.9
2018-Feb-14 17:00N 39°49' W 075°24'1 2.2
2018-Feb-14 16:30N 39°48' W 075°26'1 2.2
2018-Feb-14 16:00N 39°47' W 075°27'511.0
2018-Feb-14 15:30N 39°43' W 075°31'0 0.0
2018-Feb-14 15:00N 39°43' W 075°31'0 0.0
2018-Feb-14 14:30N 39°43' W 075°31'0 0.0
2018-Feb-14 14:00N 39°43' W 075°31'0 0.0
2018-Feb-14 13:30N 39°43' W 075°31'0 0.0
2018-Feb-14 13:00N 39°43' W 075°31'0 0.0
2018-Feb-14 12:30N 39°43' W 075°31'0 0.0
2018-Feb-14 12:00N 39°43' W 075°31'0 0.3
2018-Feb-14 11:30N 39°43' W 075°31'0 0.3
2018-Feb-14 11:00N 39°43' W 075°31'0 0.0
2018-Feb-14 10:30N 39°43' W 075°31'0 0.0
2018-Feb-14 10:00N 39°43' W 075°31'0 0.0
2018-Feb-14 09:30N 39°43' W 075°31'0 0.0
2018-Feb-14 09:00N 39°43' W 075°31'0 0.0
2018-Feb-14 08:30N 39°43' W 075°31'0 0.0
2018-Feb-14 08:00N 39°43' W 075°31'3 5.4
2018-Feb-14 07:30N 39°40' W 075°32'5 9.3
2018-Feb-14 07:00N 39°37' W 075°36'2 3.7
2018-Feb-14 06:30N 39°35' W 075°36'0 0.0
2018-Feb-14 06:00N 39°35' W 075°36'0 0.0
2018-Feb-14 05:30N 39°35' W 075°36'1 1.5
2018-Feb-14 05:00N 39°35' W 075°35'1 1.4
2018-Feb-14 04:30N 39°35' W 075°36'4 8.3
2018-Feb-14 04:00N 39°39' W 075°34'5 9.1
2018-Feb-14 03:30N 39°43' W 075°31'0 0.0
2018-Feb-14 03:00N 39°43' W 075°31'0 0.0
2018-Feb-14 02:30N 39°43' W 075°31'0 0.0
2018-Feb-14 02:00N 39°43' W 075°31'0 0.0
2018-Feb-14 01:30N 39°43' W 075°31'0 0.0
2018-Feb-14 01:00N 39°43' W 075°31'0 0.0
2018-Feb-14 00:30N 39°43' W 075°31'0 0.0
2018-Feb-14 00:00N 39°43' W 075°31'0 0.0
2018-Feb-13 23:30N 39°43' W 075°31'0 0.0
2018-Feb-13 23:00N 39°43' W 075°31'0 0.0
2018-Feb-13 22:30N 39°43' W 075°31'0 0.0
2018-Feb-13 22:00N 39°43' W 075°31'0 0.0
2018-Feb-13 21:30N 39°43' W 075°31'0 0.0
2018-Feb-13 21:00N 39°43' W 075°31'0 0.0
2018-Feb-13 20:30N 39°43' W 075°31'0 0.0
2018-Feb-13 20:00N 39°43' W 075°31'0 0.0
2018-Feb-13 19:30N 39°43' W 075°31'0 0.0
2018-Feb-13 19:00N 39°43' W 075°31'0 0.0
2018-Feb-13 18:30N 39°43' W 075°31'0 0.0
2018-Feb-13 18:00N 39°43' W 075°31'1 1.2
2018-Feb-13 17:30N 39°43' W 075°32'0 0.6
2018-Feb-13 17:00N 39°43' W 075°31'1 2.1
2018-Feb-13 16:30N 39°42' W 075°31'1 1.7
2018-Feb-13 16:00N 39°43' W 075°31'0 0.0
2018-Feb-13 15:30N 39°43' W 075°31'0 0.0
2018-Feb-13 15:00N 39°43' W 075°31'0 0.0
2018-Feb-13 14:30N 39°43' W 075°31'0 0.0
2018-Feb-13 14:00N 39°43' W 075°31'0 0.0
2018-Feb-13 13:30N 39°43' W 075°31'0 0.0
2018-Feb-13 13:00N 39°43' W 075°31'0 0.0
2018-Feb-13 12:30N 39°43' W 075°31'0 0.0
2018-Feb-13 12:00N 39°43' W 075°31'2 3.8
2018-Feb-13 11:30N 39°45' W 075°31'2 4.0
2018-Feb-13 11:00N 39°43' W 075°31'3 5.1
2018-Feb-13 10:30N 39°40' W 075°32'2 3.7
2018-Feb-13 10:00N 39°42' W 075°31'1 2.1
2018-Feb-13 09:30N 39°43' W 075°31'0 0.8
2018-Feb-13 09:00N 39°43' W 075°31'0 0.0
2018-Feb-13 08:30N 39°43' W 075°31'0 0.0
2018-Feb-13 08:00N 39°43' W 075°31'0 0.0
2018-Feb-13 07:30N 39°43' W 075°31'0 0.0
2018-Feb-13 07:00N 39°43' W 075°31'0 0.0
2018-Feb-13 06:30N 39°43' W 075°31'0 0.0
2018-Feb-13 06:00N 39°43' W 075°31'0 0.0
2018-Feb-13 05:29N 39°43' W 075°31'0 0.4
2018-Feb-13 05:00N 39°43' W 075°31'0 1.0
2018-Feb-13 04:30N 39°43' W 075°31'2 4.1
2018-Feb-13 04:00N 39°41' W 075°31'2 3.5
2018-Feb-13 03:30N 39°43' W 075°31'0 0.9
2018-Feb-13 03:00N 39°43' W 075°31'0 0.0
2018-Feb-13 02:30N 39°43' W 075°31'0 0.0
2018-Feb-13 02:00N 39°43' W 075°31'0 0.0
2018-Feb-13 01:30N 39°43' W 075°31'0 0.0
2018-Feb-13 01:00N 39°43' W 075°31'0 0.0
2018-Feb-13 00:30N 39°43' W 075°31'0 0.0
2018-Feb-13 00:00N 39°43' W 075°31'0 0.0
2018-Feb-12 23:30N 39°43' W 075°31'0 0.0
2018-Feb-12 23:00N 39°43' W 075°31'0 0.0
2018-Feb-12 22:30N 39°43' W 075°31'0 0.0
2018-Feb-12 22:00N 39°43' W 075°31'0 0.0
2018-Feb-12 21:30N 39°43' W 075°31'0 0.0
2018-Feb-12 21:00N 39°43' W 075°31'0 0.0
2018-Feb-12 20:30N 39°43' W 075°31'0 0.0
2018-Feb-12 20:00N 39°43' W 075°31'0 0.0
2018-Feb-12 19:30N 39°43' W 075°31'0 0.0
2018-Feb-12 19:00N 39°43' W 075°31'0 0.0
2018-Feb-12 18:30N 39°43' W 075°31'0 0.0
2018-Feb-12 18:00N 39°43' W 075°31'3 5.8
2018-Feb-12 17:30N 39°40' W 075°32'5 9.5
2018-Feb-12 17:00N 39°37' W 075°36'2 3.6
2018-Feb-12 16:30N 39°35' W 075°35'0 0.1
2018-Feb-12 16:00N 39°35' W 075°35'0 0.0
2018-Feb-12 15:30N 39°35' W 075°35'0 0.1
2018-Feb-12 15:00N 39°35' W 075°35'0 0.0
2018-Feb-12 14:30N 39°35' W 075°35'0 0.0
2018-Feb-12 14:00N 39°35' W 075°35'0 0.1
2018-Feb-12 13:30N 39°35' W 075°35'0 0.0
2018-Feb-12 13:00N 39°35' W 075°35'0 0.0
2018-Feb-12 12:30N 39°35' W 075°35'0 0.0
2018-Feb-12 12:00N 39°35' W 075°35'0 0.0
2018-Feb-12 11:30N 39°35' W 075°35'4 7.0
2018-Feb-12 11:00N 39°32' W 075°33'3 7.0
2018-Feb-12 10:30N 39°35' W 075°35'0 0.0
2018-Feb-12 10:00N 39°35' W 075°35'0 0.0
2018-Feb-12 09:30N 39°35' W 075°35'0 0.0
2018-Feb-12 09:00N 39°35' W 075°35'0 0.0
2018-Feb-12 08:30N 39°35' W 075°35'0 0.0
2018-Feb-12 08:00N 39°35' W 075°35'0 0.0
2018-Feb-12 07:30N 39°35' W 075°35'0 0.0
2018-Feb-12 07:00N 39°35' W 075°35'0 0.0
2018-Feb-12 06:30N 39°35' W 075°35'0 0.0
2018-Feb-12 06:00N 39°35' W 075°35'0 0.0
2018-Feb-12 05:30N 39°35' W 075°35'3 5.2
2018-Feb-12 05:00N 39°33' W 075°33'1 1.4
2018-Feb-12 04:30N 39°34' W 075°33'2 4.2
2018-Feb-12 04:00N 39°35' W 075°35'0 0.0
2018-Feb-12 03:30N 39°35' W 075°35'0 0.0
2018-Feb-12 03:00N 39°35' W 075°35'0 0.0
2018-Feb-12 02:30N 39°35' W 075°35'0 0.0
2018-Feb-12 02:00N 39°35' W 075°35'0 0.0
2018-Feb-12 01:30N 39°35' W 075°35'0 0.0
2018-Feb-12 01:00N 39°35' W 075°35'1 2.3
2018-Feb-12 00:30N 39°34' W 075°34'1 2.5
2018-Feb-12 00:00N 39°35' W 075°36'0 0.4
2018-Feb-11 23:30N 39°35' W 075°35'1 2.4
2018-Feb-11 23:00N 39°34' W 075°34'2 3.9
2018-Feb-11 22:30N 39°33' W 075°33'3 6.4
2018-Feb-11 22:00N 39°35' W 075°36'0 0.0
2018-Feb-11 21:30N 39°35' W 075°36'0 0.0
2018-Feb-11 21:00N 39°35' W 075°36'0 0.0
2018-Feb-11 20:30N 39°35' W 075°36'0 0.0
2018-Feb-11 20:00N 39°35' W 075°36'0 0.0
2018-Feb-11 19:30N 39°35' W 075°36'0 0.0
2018-Feb-11 19:00N 39°35' W 075°36'0 0.0
2018-Feb-11 18:30N 39°35' W 075°36'0 0.0
2018-Feb-11 18:01N 39°35' W 075°36'0 0.0
2018-Feb-11 17:30N 39°35' W 075°36'0 0.0
2018-Feb-11 17:00N 39°35' W 075°36'0 0.0
2018-Feb-11 16:30N 39°35' W 075°36'0 0.0
2018-Feb-11 16:00N 39°35' W 075°36'0 0.0
2018-Feb-11 15:30N 39°35' W 075°36'0 0.0
2018-Feb-11 15:00N 39°35' W 075°36'0 0.0
2018-Feb-11 14:30N 39°35' W 075°36'0 0.0
2018-Feb-11 14:00N 39°35' W 075°36'0 0.0
2018-Feb-11 13:30N 39°35' W 075°36'0 0.0
2018-Feb-11 13:00N 39°35' W 075°36'0 0.0
2018-Feb-11 12:30N 39°35' W 075°36'0 0.0
2018-Feb-11 12:00N 39°35' W 075°36'  

Dump ship's entire track history